createdAt,value
2023-03-06T00:00:52.293Z,4.50
2023-03-06T00:03:19.935Z,4.50
2023-03-06T00:05:48.336Z,4.50
2023-03-06T00:08:15.738Z,4.50
2023-03-06T00:10:42.882Z,4.50
2023-03-06T00:13:14.494Z,4.50
2023-03-06T00:15:42.238Z,4.50
2023-03-06T00:18:09.464Z,4.50
2023-03-06T00:20:36.967Z,4.50
2023-03-06T00:23:04.093Z,4.50
2023-03-06T00:25:31.196Z,4.50
2023-03-06T00:27:58.404Z,4.50
2023-03-06T00:30:26.051Z,4.50
2023-03-06T00:32:53.205Z,4.50
2023-03-06T00:35:20.563Z,4.50
2023-03-06T00:37:47.759Z,4.50
2023-03-06T00:40:18.066Z,4.50
2023-03-06T00:42:45.139Z,4.50
2023-03-06T00:45:13.077Z,4.50
2023-03-06T00:47:40.414Z,4.50
2023-03-06T00:50:08.805Z,4.50
2023-03-06T00:52:35.932Z,4.50
2023-03-06T00:55:02.985Z,4.50
2023-03-06T00:57:30.029Z,4.50
2023-03-06T00:59:57.003Z,4.40
2023-03-06T01:02:24.059Z,4.40
2023-03-06T01:04:51.093Z,4.40
2023-03-06T01:07:18.217Z,4.40
2023-03-06T01:09:45.216Z,4.50
2023-03-06T01:12:12.299Z,4.40
2023-03-06T01:14:39.299Z,4.50
2023-03-06T01:17:06.435Z,4.50
2023-03-06T01:19:33.442Z,4.50
2023-03-06T01:22:00.453Z,4.50
2023-03-06T01:24:28.677Z,4.50
2023-03-06T01:26:55.669Z,4.50
2023-03-06T01:29:22.759Z,4.50
2023-03-06T01:31:49.857Z,4.40
2023-03-06T01:34:16.870Z,4.40
2023-03-06T01:36:44.151Z,4.40
2023-03-06T01:39:11.221Z,4.40
2023-03-06T01:41:38.446Z,4.40
2023-03-06T01:44:05.462Z,4.30
2023-03-06T01:46:43.925Z,4.30
2023-03-06T01:49:16.779Z,4.30
2023-03-06T01:52:02.338Z,4.30
2023-03-06T01:54:40.082Z,4.30
2023-03-06T01:57:14.875Z,4.30
2023-03-06T01:59:42.891Z,4.30
2023-03-06T02:02:11.891Z,4.30
2023-03-06T02:04:41.373Z,4.30
2023-03-06T02:07:09.392Z,4.30
2023-03-06T02:09:38.090Z,4.30
2023-03-06T02:12:19.152Z,4.30
2023-03-06T02:14:47.169Z,4.30
2023-03-06T02:17:17.214Z,4.30
2023-03-06T02:19:49.731Z,4.30
2023-03-06T02:22:16.819Z,4.30
2023-03-06T02:25:04.239Z,4.30
2023-03-06T02:27:32.029Z,4.40
2023-03-06T02:29:59.050Z,4.40
2023-03-06T02:32:26.053Z,4.40
2023-03-06T02:34:56.150Z,4.40
2023-03-06T02:37:26.494Z,4.30
2023-03-06T02:40:09.447Z,4.40
2023-03-06T02:42:36.691Z,4.40
2023-03-06T02:45:06.773Z,4.40
2023-03-06T02:47:33.750Z,4.30
2023-03-06T02:50:00.883Z,4.30
2023-03-06T02:52:27.912Z,4.40
2023-03-06T02:54:54.945Z,4.30
2023-03-06T02:57:21.930Z,4.40
2023-03-06T02:59:48.951Z,4.30
2023-03-06T03:02:15.934Z,4.30
2023-03-06T03:04:43.027Z,4.30
2023-03-06T03:07:10.124Z,4.30
2023-03-06T03:09:37.393Z,4.30
2023-03-06T03:12:07.663Z,4.30
2023-03-06T03:14:34.907Z,4.30
2023-03-06T03:17:02.107Z,4.30
2023-03-06T03:19:29.220Z,4.30
2023-03-06T03:21:56.430Z,4.30
2023-03-06T03:24:23.624Z,4.30
2023-03-06T03:26:50.683Z,4.30
2023-03-06T03:29:17.925Z,4.30
2023-03-06T03:31:44.979Z,4.30
2023-03-06T03:34:12.172Z,4.30
2023-03-06T03:36:39.466Z,4.30
2023-03-06T03:39:06.732Z,4.30
2023-03-06T03:41:34.381Z,4.30
2023-03-06T03:44:01.444Z,4.30
2023-03-06T03:46:28.552Z,4.30
2023-03-06T03:48:55.670Z,4.30
2023-03-06T03:51:22.760Z,4.30
2023-03-06T03:53:49.890Z,4.30
2023-03-06T03:56:17.715Z,4.30
2023-03-06T03:58:44.789Z,4.30
2023-03-06T04:01:11.803Z,4.30
2023-03-06T04:03:38.787Z,4.20
2023-03-06T04:06:06.039Z,4.20
2023-03-06T04:08:33.275Z,4.20
2023-03-06T04:11:00.281Z,4.20
2023-03-06T04:13:27.514Z,4.20
2023-03-06T04:15:55.281Z,4.10
2023-03-06T04:18:24.058Z,4.10
2023-03-06T04:20:51.610Z,4.10
2023-03-06T04:23:19.778Z,4.10
2023-03-06T04:25:46.915Z,4.10
2023-03-06T04:28:14.759Z,4.10
2023-03-06T04:30:42.050Z,4.00
2023-03-06T04:33:09.299Z,4.00
2023-03-06T04:35:36.529Z,4.00
2023-03-06T04:38:04.581Z,4.00
2023-03-06T04:40:34.276Z,4.00
2023-03-06T04:43:02.332Z,4.00
2023-03-06T04:45:31.232Z,4.00
2023-03-06T04:47:58.727Z,3.90
2023-03-06T04:50:28.229Z,3.90
2023-03-06T04:52:55.291Z,3.90
2023-03-06T04:55:22.284Z,3.90
2023-03-06T04:57:49.381Z,3.90
2023-03-06T05:00:25.348Z,4.00
2023-03-06T05:02:53.021Z,4.00
2023-03-06T05:05:20.137Z,3.90
2023-03-06T05:07:47.219Z,3.90
2023-03-06T05:10:17.643Z,3.90
2023-03-06T05:12:45.087Z,3.90
2023-03-06T05:15:13.248Z,3.90
2023-03-06T05:17:40.602Z,3.90
2023-03-06T05:20:09.834Z,3.90
2023-03-06T05:22:37.137Z,3.90
2023-03-06T05:25:05.089Z,3.90
2023-03-06T05:27:32.510Z,3.90
2023-03-06T05:29:59.584Z,3.90
2023-03-06T05:32:26.934Z,3.90
2023-03-06T05:34:53.987Z,3.90
2023-03-06T05:37:21.153Z,4.00
2023-03-06T05:39:48.316Z,4.00
2023-03-06T05:42:15.438Z,4.00
2023-03-06T05:44:42.490Z,4.00
2023-03-06T05:47:09.693Z,4.00
2023-03-06T05:49:36.998Z,4.00
2023-03-06T05:52:05.460Z,3.90
2023-03-06T05:54:33.888Z,3.90
2023-03-06T05:57:01.317Z,3.90
2023-03-06T05:59:29.188Z,4.00
2023-03-06T06:01:56.571Z,4.00
2023-03-06T06:04:26.446Z,4.00
2023-03-06T06:06:58.132Z,4.10
2023-03-06T06:09:26.263Z,4.10
2023-03-06T06:11:55.282Z,4.10
2023-03-06T06:14:23.047Z,4.20
2023-03-06T06:16:50.440Z,4.20
2023-03-06T06:19:20.736Z,4.20
2023-03-06T06:21:50.668Z,4.20
2023-03-06T06:24:19.628Z,4.20
2023-03-06T06:26:49.579Z,4.30
2023-03-06T06:29:16.780Z,4.40
2023-03-06T06:31:43.767Z,4.30
2023-03-06T06:34:12.697Z,4.40
2023-03-06T06:36:40.441Z,4.40
2023-03-06T06:39:08.460Z,4.50
2023-03-06T06:41:54.999Z,4.50
2023-03-06T06:44:23.239Z,4.60
2023-03-06T06:47:21.301Z,4.60
2023-03-06T06:49:37.501Z,4.70
2023-03-06T06:52:05.746Z,4.70
2023-03-06T06:54:35.854Z,4.80
2023-03-06T06:57:02.883Z,5.00
2023-03-06T06:59:29.862Z,5.10
2023-03-06T07:01:56.988Z,5.20
2023-03-06T07:04:24.092Z,5.20
2023-03-06T07:06:51.746Z,5.30
2023-03-06T07:09:20.147Z,5.20
2023-03-06T07:11:47.120Z,5.30
2023-03-06T07:14:14.363Z,5.30
2023-03-06T07:16:41.386Z,5.30
2023-03-06T07:19:08.502Z,5.40
2023-03-06T07:21:35.712Z,5.40
2023-03-06T07:24:02.738Z,5.40
2023-03-06T07:26:32.709Z,5.50
2023-03-06T07:29:02.094Z,5.50
2023-03-06T07:31:29.218Z,5.60
2023-03-06T07:33:56.519Z,5.70
2023-03-06T07:36:24.264Z,5.80
2023-03-06T07:38:51.253Z,5.90
2023-03-06T07:41:21.955Z,6.00
2023-03-06T07:43:49.869Z,6.00
2023-03-06T07:46:17.470Z,6.10
2023-03-06T07:48:44.825Z,6.20
2023-03-06T07:51:17.774Z,6.20
2023-03-06T07:53:44.918Z,6.20
2023-03-06T07:56:12.850Z,6.20
2023-03-06T07:58:42.773Z,6.20
2023-03-06T08:01:20.005Z,6.30
2023-03-06T08:03:47.822Z,6.40
2023-03-06T08:06:19.106Z,6.30
2023-03-06T08:08:47.717Z,6.30
2023-03-06T08:11:17.149Z,6.40
2023-03-06T08:13:44.956Z,6.50
2023-03-06T08:16:12.536Z,6.50
2023-03-06T08:18:44.338Z,6.60
2023-03-06T08:21:15.256Z,6.70
2023-03-06T08:23:42.510Z,6.80
2023-03-06T08:26:13.831Z,6.90
2023-03-06T08:28:41.260Z,6.90
2023-03-06T08:31:19.842Z,7.00
2023-03-06T08:33:46.942Z,7.00
2023-03-06T08:36:13.971Z,7.10
2023-03-06T08:38:41.103Z,7.10
2023-03-06T08:41:08.190Z,7.20
2023-03-06T08:43:36.270Z,7.30
2023-03-06T08:46:03.413Z,7.30
2023-03-06T08:48:30.523Z,7.30
2023-03-06T08:50:58.004Z,7.40
2023-03-06T08:53:40.285Z,7.40
2023-03-06T08:56:16.559Z,7.40
2023-03-06T08:58:43.668Z,7.50
2023-03-06T09:01:20.169Z,7.50
2023-03-06T09:03:47.331Z,7.60
2023-03-06T09:06:15.386Z,7.70
2023-03-06T09:08:44.808Z,7.70
2023-03-06T09:11:14.630Z,7.80
2023-03-06T09:13:43.100Z,7.90
2023-03-06T09:16:12.193Z,8.00
2023-03-06T09:18:39.544Z,8.00
2023-03-06T09:21:07.416Z,8.20
2023-03-06T09:23:34.703Z,8.20
2023-03-06T09:26:02.263Z,8.40
2023-03-06T09:28:29.366Z,8.50
2023-03-06T09:30:56.506Z,8.60
2023-03-06T09:33:23.870Z,8.60
2023-03-06T09:35:56.060Z,8.40
2023-03-06T09:38:26.583Z,8.40
2023-03-06T09:41:05.040Z,8.60
2023-03-06T09:43:35.902Z,8.70
2023-03-06T09:46:21.211Z,8.80
2023-03-06T09:49:10.698Z,9.00
2023-03-06T09:51:54.821Z,9.00
2023-03-06T09:54:34.109Z,9.10
2023-03-06T09:57:01.198Z,9.20
2023-03-06T09:59:28.791Z,9.20
2023-03-06T10:02:18.370Z,9.30
2023-03-06T10:04:54.825Z,9.50
2023-03-06T10:07:33.774Z,9.80
2023-03-06T10:10:04.823Z,9.90
2023-03-06T10:12:41.247Z,10.00
2023-03-06T10:15:28.916Z,10.30
2023-03-06T10:17:57.317Z,10.30
2023-03-06T10:20:42.823Z,10.40
2023-03-06T10:23:11.131Z,10.40
2023-03-06T10:25:57.206Z,10.50
2023-03-06T10:28:41.513Z,10.60
2023-03-06T10:31:20.909Z,10.70
2023-03-06T10:34:05.958Z,10.80
2023-03-06T10:36:33.062Z,10.80
2023-03-06T10:39:00.642Z,10.70
2023-03-06T10:41:30.437Z,10.90
2023-03-06T10:44:00.161Z,11.00
2023-03-06T10:46:33.433Z,11.10
2023-03-06T10:49:09.343Z,11.20
2023-03-06T10:51:36.463Z,11.20
2023-03-06T10:54:19.473Z,11.20
2023-03-06T10:56:47.377Z,11.20
2023-03-06T10:59:19.660Z,11.30
2023-03-06T11:01:49.531Z,11.30
2023-03-06T11:04:24.780Z,11.30
2023-03-06T11:07:08.105Z,11.30
2023-03-06T11:09:36.369Z,11.30
2023-03-06T11:12:27.724Z,11.20
2023-03-06T11:15:06.950Z,11.20
2023-03-06T11:17:48.231Z,11.10
2023-03-06T11:20:15.393Z,10.80
2023-03-06T11:22:48.118Z,11.00
2023-03-06T11:25:18.747Z,11.10
2023-03-06T11:27:52.770Z,11.20
2023-03-06T11:30:32.694Z,11.20
2023-03-06T11:33:05.279Z,11.10
2023-03-06T11:36:03.406Z,11.00
2023-03-06T11:38:45.080Z,10.90
2023-03-06T11:41:30.956Z,10.70
2023-03-06T11:44:06.914Z,10.60
2023-03-06T11:46:40.381Z,10.60
2023-03-06T11:49:24.477Z,10.60
2023-03-06T11:51:58.096Z,10.40
2023-03-06T11:54:25.629Z,10.40
2023-03-06T11:57:01.965Z,10.40
2023-03-06T11:59:44.345Z,10.40
2023-03-06T12:02:59.641Z,10.30
2023-03-06T12:05:38.973Z,10.30
2023-03-06T12:08:28.226Z,10.30
2023-03-06T12:11:02.772Z,10.50
2023-03-06T12:14:20.775Z,10.70
2023-03-06T12:17:22.031Z,10.90
2023-03-06T12:20:07.518Z,11.10
2023-03-06T12:23:02.389Z,11.20
2023-03-06T12:25:49.361Z,11.20
2023-03-06T12:28:19.448Z,11.40
2023-03-06T12:30:56.244Z,11.40
2023-03-06T12:33:34.983Z,11.30
2023-03-06T12:36:21.533Z,11.10
2023-03-06T12:39:06.569Z,11.00
2023-03-06T12:41:48.152Z,10.90
2023-03-06T12:44:36.313Z,10.80
2023-03-06T12:47:09.301Z,10.80
2023-03-06T12:49:41.751Z,10.80
2023-03-06T12:52:11.108Z,10.80
2023-03-06T12:54:41.296Z,10.80
2023-03-06T12:57:10.253Z,10.80
2023-03-06T12:59:49.564Z,10.80
2023-03-06T13:02:22.338Z,10.80
2023-03-06T13:05:10.443Z,10.60
2023-03-06T13:07:54.187Z,10.50
2023-03-06T13:10:30.914Z,10.40
2023-03-06T13:13:23.758Z,10.20
2023-03-06T13:16:18.790Z,10.20
2023-03-06T13:19:16.229Z,10.30
2023-03-06T13:21:46.067Z,10.70
2023-03-06T13:24:19.234Z,10.90
2023-03-06T13:26:46.169Z,10.80
2023-03-06T13:29:38.028Z,10.70
2023-03-06T13:32:07.165Z,10.60
2023-03-06T13:34:38.461Z,10.60
2023-03-06T13:37:17.378Z,10.60
2023-03-06T13:39:59.449Z,10.60
2023-03-06T13:42:30.453Z,10.70
2023-03-06T13:45:23.489Z,10.70
2023-03-06T13:50:47.519Z,10.60
2023-03-06T13:53:51.121Z,10.60
2023-03-06T13:56:32.887Z,10.60
2023-03-06T13:59:23.945Z,10.60
2023-03-06T14:02:00.917Z,10.50
2023-03-06T14:04:36.484Z,10.40
2023-03-06T14:07:26.492Z,10.40
2023-03-06T14:10:20.383Z,10.30
2023-03-06T14:12:50.453Z,10.20
2023-03-06T14:15:48.700Z,10.20
2023-03-06T14:18:21.061Z,10.10
2023-03-06T14:21:03.900Z,10.00
2023-03-06T14:23:42.738Z,9.90
2023-03-06T14:26:17.845Z,9.80
2023-03-06T14:28:54.738Z,9.80
2023-03-06T14:31:28.712Z,9.70
2023-03-06T14:34:01.461Z,9.60
2023-03-06T14:36:49.103Z,9.60
2023-03-06T14:39:23.306Z,9.50
2023-03-06T14:41:50.443Z,9.50
2023-03-06T14:44:23.369Z,9.50
2023-03-06T14:46:55.298Z,9.50
2023-03-06T14:49:24.839Z,9.40
2023-03-06T14:52:00.913Z,9.40
2023-03-06T14:54:38.991Z,9.40
2023-03-06T14:57:15.510Z,9.30
2023-03-06T14:59:53.858Z,9.30
2023-03-06T15:02:24.027Z,9.20
2023-03-06T15:04:55.116Z,9.30
2023-03-06T15:07:26.095Z,9.20
2023-03-06T15:09:54.550Z,9.20
2023-03-06T15:12:21.909Z,9.20
2023-03-06T15:14:57.968Z,9.20
2023-03-06T15:17:46.550Z,9.10
2023-03-06T15:20:51.271Z,9.10
2023-03-06T15:23:27.432Z,9.10
2023-03-06T15:26:00.061Z,9.10
2023-03-06T15:28:38.864Z,9.10
2023-03-06T15:31:20.786Z,9.10
2023-03-06T15:34:06.602Z,9.10
2023-03-06T15:36:39.331Z,9.10
2023-03-06T15:39:46.779Z,9.00
2023-03-06T15:42:23.940Z,9.00
2023-03-06T15:45:03.354Z,9.10
2023-03-06T15:47:30.480Z,9.10
2023-03-06T15:49:57.857Z,9.10
2023-03-06T15:52:25.207Z,9.00
2023-03-06T15:54:52.802Z,9.00
2023-03-06T15:57:26.845Z,9.00
2023-03-06T15:59:54.624Z,9.00
2023-03-06T16:02:23.964Z,9.00
2023-03-06T16:04:52.263Z,9.00
2023-03-06T16:07:19.455Z,8.90
2023-03-06T16:09:46.941Z,9.00
2023-03-06T16:12:17.748Z,8.90
2023-03-06T16:14:47.925Z,8.90
2023-03-06T16:17:16.162Z,8.90
2023-03-06T16:19:43.886Z,8.90
2023-03-06T16:22:11.215Z,8.80
2023-03-06T16:24:38.289Z,8.80
2023-03-06T16:27:07.175Z,8.80
2023-03-06T16:29:35.324Z,8.80
2023-03-06T16:32:03.329Z,8.80
2023-03-06T16:34:30.734Z,8.70
2023-03-06T16:36:58.698Z,8.70
2023-03-06T16:39:26.117Z,8.70
2023-03-06T16:41:53.547Z,8.70
2023-03-06T16:44:21.491Z,8.70
2023-03-06T16:46:50.273Z,8.60
2023-03-06T16:49:24.756Z,8.60
2023-03-06T16:51:53.749Z,8.50
2023-03-06T16:54:23.947Z,8.50
2023-03-06T16:56:51.360Z,8.40
2023-03-06T16:59:18.994Z,8.40
2023-03-06T17:01:46.626Z,8.40
2023-03-06T17:04:13.850Z,8.40
2023-03-06T17:06:42.328Z,8.30
2023-03-06T17:09:14.819Z,8.30
2023-03-06T17:11:45.282Z,8.20
2023-03-06T17:14:12.758Z,8.20
2023-03-06T17:16:42.585Z,8.20
2023-03-06T17:19:16.618Z,8.10
2023-03-06T17:21:44.576Z,8.10
2023-03-06T17:24:12.215Z,8.10
2023-03-06T17:26:40.295Z,8.10
2023-03-06T17:29:07.582Z,8.00
2023-03-06T17:31:34.962Z,8.00
2023-03-06T17:34:02.482Z,8.00
2023-03-06T17:36:31.914Z,7.90
2023-03-06T17:39:02.398Z,7.90
2023-03-06T17:41:31.037Z,7.80
2023-03-06T17:43:59.006Z,7.80
2023-03-06T17:46:27.308Z,7.80
2023-03-06T17:48:55.827Z,7.70
2023-03-06T17:51:23.721Z,7.70
2023-03-06T17:53:52.818Z,7.70
2023-03-06T17:56:20.311Z,7.70
2023-03-06T17:58:48.316Z,7.60
2023-03-06T18:01:21.882Z,7.70
2023-03-06T18:03:51.196Z,7.70
2023-03-06T18:06:21.282Z,7.60
2023-03-06T18:08:52.359Z,7.60
2023-03-06T18:11:21.214Z,7.60
2023-03-06T18:13:49.603Z,7.60
2023-03-06T18:16:23.506Z,7.60
2023-03-06T18:18:56.212Z,7.60
2023-03-06T18:21:25.396Z,7.50
2023-03-06T18:23:54.180Z,7.50
2023-03-06T18:26:46.650Z,7.50
2023-03-06T18:29:14.543Z,7.50
2023-03-06T18:31:43.989Z,7.40
2023-03-06T18:34:14.333Z,7.40
2023-03-06T18:36:47.809Z,7.30
2023-03-06T18:39:16.452Z,7.30
2023-03-06T18:41:44.601Z,7.20
2023-03-06T18:44:15.943Z,7.20
2023-03-06T18:46:46.204Z,7.10
2023-03-06T18:49:16.856Z,7.10
2023-03-06T18:51:44.298Z,7.00
2023-03-06T18:54:14.912Z,7.00
2023-03-06T18:56:48.789Z,6.90
2023-03-06T18:59:19.028Z,6.90
2023-03-06T19:01:47.942Z,6.90
2023-03-06T19:04:16.790Z,6.80
2023-03-06T19:06:45.202Z,6.70
2023-03-06T19:09:14.431Z,6.70
2023-03-06T19:11:44.120Z,6.60
2023-03-06T19:14:12.577Z,6.50
2023-03-06T19:16:40.748Z,6.40
2023-03-06T19:19:08.795Z,6.30
2023-03-06T19:21:36.752Z,6.20
2023-03-06T19:24:08.646Z,6.20
2023-03-06T19:26:36.351Z,6.10
2023-03-06T19:29:04.449Z,5.90
2023-03-06T19:31:33.425Z,5.80
2023-03-06T19:34:01.801Z,5.70
2023-03-06T19:36:33.755Z,5.60
2023-03-06T19:39:04.919Z,5.50
2023-03-06T19:41:32.336Z,5.50
2023-03-06T19:44:03.929Z,5.50
2023-03-06T19:46:33.000Z,5.50
2023-03-06T19:49:03.020Z,5.40
2023-03-06T19:51:30.441Z,5.40
2023-03-06T19:53:59.171Z,5.40
2023-03-06T19:56:29.435Z,5.40
2023-03-06T19:58:57.926Z,5.40
2023-03-06T20:01:28.303Z,5.40
2023-03-06T20:04:01.540Z,5.40
2023-03-06T20:06:33.754Z,5.40
2023-03-06T20:09:08.368Z,5.30
2023-03-06T20:11:36.850Z,5.30
2023-03-06T20:14:09.876Z,5.30
2023-03-06T20:16:40.806Z,5.30
2023-03-06T20:19:09.512Z,5.30
2023-03-06T20:21:38.524Z,5.20
2023-03-06T20:24:08.062Z,5.20
2023-03-06T20:26:39.174Z,5.20
2023-03-06T20:29:06.556Z,5.20
2023-03-06T20:31:35.472Z,5.20
2023-03-06T20:34:04.161Z,5.20
2023-03-06T20:36:36.218Z,5.20
2023-03-06T20:39:07.192Z,5.30
2023-03-06T20:41:36.708Z,5.30
2023-03-06T20:44:06.588Z,5.30
2023-03-06T20:46:35.529Z,5.30
2023-03-06T20:49:03.364Z,5.30
2023-03-06T20:51:33.383Z,5.30
2023-03-06T20:54:02.797Z,5.30
2023-03-06T20:56:33.312Z,5.40
2023-03-06T20:59:01.777Z,5.30
2023-03-06T21:01:42.226Z,5.30
2023-03-06T21:04:14.045Z,5.30
2023-03-06T21:06:45.660Z,5.30
2023-03-06T21:09:14.706Z,5.30
2023-03-06T21:11:45.758Z,5.20
2023-03-06T21:14:14.508Z,5.20
2023-03-06T21:16:42.331Z,5.10
2023-03-06T21:19:10.991Z,5.10
2023-03-06T21:21:38.364Z,5.10
2023-03-06T21:24:06.050Z,5.10
2023-03-06T21:26:36.452Z,5.10
2023-03-06T21:29:04.701Z,5.10
2023-03-06T21:31:33.668Z,5.00
2023-03-06T21:34:03.040Z,5.00
2023-03-06T21:36:31.502Z,5.00
2023-03-06T21:38:58.905Z,5.00
2023-03-06T21:41:29.550Z,5.00
2023-03-06T21:43:58.793Z,5.00
2023-03-06T21:46:27.339Z,5.00
2023-03-06T21:48:54.882Z,5.00
2023-03-06T21:51:23.858Z,5.00
2023-03-06T21:53:52.365Z,5.00
2023-03-06T21:56:21.809Z,5.00
2023-03-06T21:58:48.793Z,5.00
2023-03-06T22:01:22.376Z,5.00
2023-03-06T22:03:49.992Z,5.00
2023-03-06T22:06:19.772Z,5.00
2023-03-06T22:08:47.262Z,5.00
2023-03-06T22:11:17.167Z,4.90
2023-03-06T22:13:45.410Z,4.90
2023-03-06T22:16:12.970Z,5.00
2023-03-06T22:18:40.355Z,5.00
2023-03-06T22:21:12.400Z,4.90
2023-03-06T22:23:40.714Z,4.90
2023-03-06T22:26:13.134Z,4.90
2023-03-06T22:28:41.169Z,4.90
2023-03-06T22:31:14.351Z,4.90
2023-03-06T22:33:42.154Z,4.90
2023-03-06T22:36:12.192Z,4.90
2023-03-06T22:38:41.344Z,4.90
2023-03-06T22:41:10.133Z,4.90
2023-03-06T22:43:37.487Z,4.90
2023-03-06T22:46:13.388Z,4.80
2023-03-06T22:48:40.749Z,4.80
2023-03-06T22:51:10.789Z,4.80
2023-03-06T22:53:38.134Z,4.90
2023-03-06T22:56:07.878Z,4.90
2023-03-06T22:58:37.396Z,4.90
2023-03-06T23:01:18.987Z,4.90
2023-03-06T23:03:48.448Z,4.90
2023-03-06T23:06:16.900Z,4.90
2023-03-06T23:08:45.158Z,4.90
2023-03-06T23:11:16.915Z,4.90
2023-03-06T23:13:43.935Z,4.90
2023-03-06T23:16:11.355Z,4.80
2023-03-06T23:18:39.549Z,4.80
2023-03-06T23:21:07.988Z,4.70
2023-03-06T23:23:35.705Z,4.70
2023-03-06T23:26:02.892Z,4.70
2023-03-06T23:28:30.196Z,4.70
2023-03-06T23:30:57.224Z,4.70
2023-03-06T23:33:24.405Z,4.60
2023-03-06T23:35:51.504Z,4.60
2023-03-06T23:38:18.562Z,4.60
2023-03-06T23:40:45.504Z,4.60
2023-03-06T23:43:12.482Z,4.60
2023-03-06T23:45:39.465Z,4.50
2023-03-06T23:48:08.155Z,4.50
2023-03-06T23:50:35.157Z,4.40
2023-03-06T23:53:02.185Z,4.30
2023-03-06T23:55:29.250Z,4.20
2023-03-06T23:57:56.219Z,4.10
